sensor_id;sensor_type;location;lat;lon;timestamp;P1;durP1;ratioP1;P2;durP2;ratioP2
10902;SDS011;5504;47.312;11.060;2022-08-16T00:02:17;4.27;;;3.73;;
10902;SDS011;5504;47.312;11.060;2022-08-16T00:04:43;5.13;;;3.20;;
10902;SDS011;5504;47.312;11.060;2022-08-16T00:07:08;4.80;;;3.50;;
10902;SDS011;5504;47.312;11.060;2022-08-16T00:09:34;3.80;;;3.37;;
10902;SDS011;5504;47.312;11.060;2022-08-16T00:12:00;4.83;;;3.50;;
10902;SDS011;5504;47.312;11.060;2022-08-16T00:14:27;4.87;;;3.43;;
10902;SDS011;5504;47.312;11.060;2022-08-16T00:16:56;4.20;;;3.47;;
10902;SDS011;5504;47.312;11.060;2022-08-16T00:19:23;3.73;;;3.37;;
10902;SDS011;5504;47.312;11.060;2022-08-16T00:21:52;4.10;;;3.60;;
10902;SDS011;5504;47.312;11.060;2022-08-16T00:24:18;3.77;;;3.43;;
10902;SDS011;5504;47.312;11.060;2022-08-16T00:26:44;4.27;;;3.40;;
10902;SDS011;5504;47.312;11.060;2022-08-16T00:29:10;3.57;;;3.10;;
10902;SDS011;5504;47.312;11.060;2022-08-16T00:31:38;4.30;;;3.30;;
10902;SDS011;5504;47.312;11.060;2022-08-16T00:34:03;4.17;;;3.33;;
10902;SDS011;5504;47.312;11.060;2022-08-16T00:36:29;3.80;;;3.40;;
10902;SDS011;5504;47.312;11.060;2022-08-16T00:38:55;5.07;;;3.57;;
10902;SDS011;5504;47.312;11.060;2022-08-16T00:41:21;4.33;;;3.40;;
10902;SDS011;5504;47.312;11.060;2022-08-16T00:43:48;3.90;;;3.50;;
10902;SDS011;5504;47.312;11.060;2022-08-16T00:46:27;6.20;;;3.70;;
10902;SDS011;5504;47.312;11.060;2022-08-16T00:48:57;3.47;;;3.27;;
10902;SDS011;5504;47.312;11.060;2022-08-16T00:51:25;5.97;;;3.43;;
10902;SDS011;5504;47.312;11.060;2022-08-16T00:53:52;3.73;;;3.40;;
10902;SDS011;5504;47.312;11.060;2022-08-16T00:56:21;4.60;;;4.20;;
10902;SDS011;5504;47.312;11.060;2022-08-16T00:58:50;4.70;;;3.27;;
10902;SDS011;5504;47.312;11.060;2022-08-16T01:01:16;4.20;;;3.20;;
10902;SDS011;5504;47.312;11.060;2022-08-16T01:03:46;3.83;;;3.40;;
10902;SDS011;5504;47.312;11.060;2022-08-16T01:06:13;4.53;;;3.70;;
10902;SDS011;5504;47.312;11.060;2022-08-16T01:08:42;3.77;;;3.40;;
10902;SDS011;5504;47.312;11.060;2022-08-16T01:11:11;4.13;;;3.73;;
10902;SDS011;5504;47.312;11.060;2022-08-16T01:13:39;5.20;;;3.70;;
10902;SDS011;5504;47.312;11.060;2022-08-16T01:16:09;4.10;;;3.70;;
10902;SDS011;5504;47.312;11.060;2022-08-16T01:18:44;4.93;;;3.43;;
10902;SDS011;5504;47.312;11.060;2022-08-16T01:26:42;4.07;;;3.20;;
10902;SDS011;5504;47.312;11.060;2022-08-16T01:29:11;3.97;;;3.37;;
10902;SDS011;5504;47.312;11.060;2022-08-16T01:31:40;5.37;;;3.83;;
10902;SDS011;5504;47.312;11.060;2022-08-16T01:34:06;5.00;;;3.80;;
10902;SDS011;5504;47.312;11.060;2022-08-16T01:36:33;4.70;;;3.60;;
10902;SDS011;5504;47.312;11.060;2022-08-16T01:38:59;3.60;;;3.30;;
10902;SDS011;5504;47.312;11.060;2022-08-16T01:41:37;4.10;;;3.67;;
10902;SDS011;5504;47.312;11.060;2022-08-16T01:44:03;5.00;;;3.40;;
10902;SDS011;5504;47.312;11.060;2022-08-16T01:49:00;3.60;;;3.30;;
10902;SDS011;5504;47.312;11.060;2022-08-16T01:51:31;4.77;;;3.23;;
10902;SDS011;5504;47.312;11.060;2022-08-16T01:53:58;4.43;;;3.90;;
10902;SDS011;5504;47.312;11.060;2022-08-16T01:56:24;4.13;;;3.73;;
10902;SDS011;5504;47.312;11.060;2022-08-16T01:58:51;3.87;;;3.40;;
10902;SDS011;5504;47.312;11.060;2022-08-16T02:01:18;3.70;;;3.30;;
10902;SDS011;5504;47.312;11.060;2022-08-16T02:03:44;4.17;;;3.70;;
10902;SDS011;5504;47.312;11.060;2022-08-16T02:06:10;4.90;;;3.43;;
10902;SDS011;5504;47.312;11.060;2022-08-16T02:08:35;5.77;;;3.70;;
10902;SDS011;5504;47.312;11.060;2022-08-16T02:11:05;5.43;;;4.10;;
10902;SDS011;5504;47.312;11.060;2022-08-16T02:13:33;4.17;;;3.60;;
10902;SDS011;5504;47.312;11.060;2022-08-16T02:16:00;4.83;;;4.10;;
10902;SDS011;5504;47.312;11.060;2022-08-16T02:18:26;5.17;;;4.03;;
10902;SDS011;5504;47.312;11.060;2022-08-16T02:20:52;5.77;;;4.13;;
10902;SDS011;5504;47.312;11.060;2022-08-16T02:23:18;4.37;;;3.97;;
10902;SDS011;5504;47.312;11.060;2022-08-16T02:25:45;4.10;;;3.80;;
10902;SDS011;5504;47.312;11.060;2022-08-16T02:28:12;5.23;;;4.60;;
10902;SDS011;5504;47.312;11.060;2022-08-16T02:30:38;5.10;;;4.50;;
10902;SDS011;5504;47.312;11.060;2022-08-16T02:33:05;5.77;;;4.60;;
10902;SDS011;5504;47.312;11.060;2022-08-16T02:35:31;6.37;;;4.70;;
10902;SDS011;5504;47.312;11.060;2022-08-16T02:37:58;4.93;;;4.53;;
10902;SDS011;5504;47.312;11.060;2022-08-16T02:40:24;5.00;;;4.50;;
10902;SDS011;5504;47.312;11.060;2022-08-16T02:42:51;5.07;;;4.50;;
10902;SDS011;5504;47.312;11.060;2022-08-16T02:45:19;5.03;;;4.40;;
10902;SDS011;5504;47.312;11.060;2022-08-16T02:47:46;4.83;;;4.40;;
10902;SDS011;5504;47.312;11.060;2022-08-16T02:50:11;5.10;;;4.60;;
10902;SDS011;5504;47.312;11.060;2022-08-16T02:52:37;6.63;;;4.60;;
10902;SDS011;5504;47.312;11.060;2022-08-16T02:55:03;4.97;;;4.40;;
10902;SDS011;5504;47.312;11.060;2022-08-16T02:57:30;5.13;;;4.00;;
10902;SDS011;5504;47.312;11.060;2022-08-16T02:59:57;4.63;;;4.23;;
10902;SDS011;5504;47.312;11.060;2022-08-16T03:02:24;4.50;;;4.10;;
10902;SDS011;5504;47.312;11.060;2022-08-16T03:04:50;4.53;;;4.10;;
10902;SDS011;5504;47.312;11.060;2022-08-16T03:07:16;4.60;;;4.20;;
10902;SDS011;5504;47.312;11.060;2022-08-16T03:09:43;4.70;;;4.30;;
10902;SDS011;5504;47.312;11.060;2022-08-16T03:12:09;5.47;;;4.57;;
10902;SDS011;5504;47.312;11.060;2022-08-16T03:14:35;5.20;;;4.70;;
10902;SDS011;5504;47.312;11.060;2022-08-16T03:17:01;4.43;;;4.03;;
10902;SDS011;5504;47.312;11.060;2022-08-16T03:19:27;4.43;;;4.00;;
10902;SDS011;5504;47.312;11.060;2022-08-16T03:21:54;4.73;;;4.27;;
10902;SDS011;5504;47.312;11.060;2022-08-16T03:24:20;4.47;;;4.07;;
10902;SDS011;5504;47.312;11.060;2022-08-16T03:26:46;5.27;;;4.40;;
10902;SDS011;5504;47.312;11.060;2022-08-16T03:29:11;4.77;;;4.27;;
10902;SDS011;5504;47.312;11.060;2022-08-16T03:31:37;4.90;;;4.50;;
10902;SDS011;5504;47.312;11.060;2022-08-16T03:34:03;4.70;;;4.20;;
10902;SDS011;5504;47.312;11.060;2022-08-16T03:36:29;4.90;;;4.43;;
10902;SDS011;5504;47.312;11.060;2022-08-16T03:38:55;4.60;;;4.20;;
10902;SDS011;5504;47.312;11.060;2022-08-16T03:41:20;5.10;;;4.60;;
10902;SDS011;5504;47.312;11.060;2022-08-16T03:43:47;5.27;;;4.60;;
10902;SDS011;5504;47.312;11.060;2022-08-16T03:46:13;5.17;;;4.70;;
10902;SDS011;5504;47.312;11.060;2022-08-16T03:48:39;4.93;;;4.53;;
10902;SDS011;5504;47.312;11.060;2022-08-16T03:51:07;5.43;;;4.93;;
10902;SDS011;5504;47.312;11.060;2022-08-16T03:53:35;6.60;;;4.60;;
10902;SDS011;5504;47.312;11.060;2022-08-16T03:56:02;4.83;;;4.43;;
10902;SDS011;5504;47.312;11.060;2022-08-16T03:58:28;4.97;;;4.57;;
10902;SDS011;5504;47.312;11.060;2022-08-16T04:00:53;5.80;;;4.70;;
10902;SDS011;5504;47.312;11.060;2022-08-16T04:03:20;4.87;;;4.47;;
10902;SDS011;5504;47.312;11.060;2022-08-16T04:05:46;5.73;;;4.60;;
10902;SDS011;5504;47.312;11.060;2022-08-16T04:08:15;5.07;;;4.57;;
10902;SDS011;5504;47.312;11.060;2022-08-16T04:10:43;4.57;;;4.07;;
10902;SDS011;5504;47.312;11.060;2022-08-16T04:13:09;5.03;;;4.53;;
10902;SDS011;5504;47.312;11.060;2022-08-16T04:15:35;5.13;;;3.97;;
10902;SDS011;5504;47.312;11.060;2022-08-16T04:18:02;4.87;;;4.23;;
10902;SDS011;5504;47.312;11.060;2022-08-16T04:20:29;4.33;;;3.93;;
10902;SDS011;5504;47.312;11.060;2022-08-16T04:22:55;4.50;;;4.10;;
10902;SDS011;5504;47.312;11.060;2022-08-16T04:25:21;4.30;;;3.90;;
10902;SDS011;5504;47.312;11.060;2022-08-16T04:27:47;4.60;;;4.20;;
10902;SDS011;5504;47.312;11.060;2022-08-16T04:30:14;5.40;;;4.30;;
10902;SDS011;5504;47.312;11.060;2022-08-16T04:32:41;4.63;;;4.23;;
10902;SDS011;5504;47.312;11.060;2022-08-16T04:35:09;4.70;;;4.30;;
10902;SDS011;5504;47.312;11.060;2022-08-16T04:37:37;4.40;;;4.00;;
10902;SDS011;5504;47.312;11.060;2022-08-16T04:40:04;4.50;;;4.10;;
10902;SDS011;5504;47.312;11.060;2022-08-16T04:42:31;4.97;;;4.47;;
10902;SDS011;5504;47.312;11.060;2022-08-16T04:44:58;4.90;;;4.20;;
10902;SDS011;5504;47.312;11.060;2022-08-16T04:47:27;5.17;;;4.67;;
10902;SDS011;5504;47.312;11.060;2022-08-16T04:49:56;4.63;;;4.30;;
10902;SDS011;5504;47.312;11.060;2022-08-16T04:52:22;5.03;;;4.30;;
10902;SDS011;5504;47.312;11.060;2022-08-16T04:54:48;4.70;;;4.20;;
10902;SDS011;5504;47.312;11.060;2022-08-16T04:57:14;4.53;;;4.13;;
10902;SDS011;5504;47.312;11.060;2022-08-16T04:59:39;5.13;;;4.20;;
10902;SDS011;5504;47.312;11.060;2022-08-16T05:02:05;3.90;;;3.60;;
10902;SDS011;5504;47.312;11.060;2022-08-16T05:04:31;4.50;;;4.10;;
10902;SDS011;5504;47.312;11.060;2022-08-16T05:06:57;4.33;;;4.00;;
10902;SDS011;5504;47.312;11.060;2022-08-16T05:09:23;4.50;;;4.03;;
10902;SDS011;5504;47.312;11.060;2022-08-16T05:11:49;4.60;;;4.10;;
10902;SDS011;5504;47.312;11.060;2022-08-16T05:14:14;4.53;;;4.13;;
10902;SDS011;5504;47.312;11.060;2022-08-16T05:16:40;4.37;;;3.97;;
10902;SDS011;5504;47.312;11.060;2022-08-16T05:19:07;3.87;;;3.57;;
10902;SDS011;5504;47.312;11.060;2022-08-16T05:21:33;4.80;;;4.17;;
10902;SDS011;5504;47.312;11.060;2022-08-16T05:23:59;4.90;;;4.07;;
10902;SDS011;5504;47.312;11.060;2022-08-16T05:26:26;3.77;;;3.47;;
10902;SDS011;5504;47.312;11.060;2022-08-16T05:28:56;4.20;;;3.80;;
10902;SDS011;5504;47.312;11.060;2022-08-16T05:31:24;5.20;;;3.40;;
10902;SDS011;5504;47.312;11.060;2022-08-16T05:33:51;4.43;;;3.37;;
10902;SDS011;5504;47.312;11.060;2022-08-16T05:36:16;3.60;;;3.30;;
10902;SDS011;5504;47.312;11.060;2022-08-16T05:38:42;3.83;;;3.50;;
10902;SDS011;5504;47.312;11.060;2022-08-16T05:41:08;3.80;;;3.50;;
10902;SDS011;5504;47.312;11.060;2022-08-16T05:43:33;3.87;;;3.57;;
10902;SDS011;5504;47.312;11.060;2022-08-16T05:46:00;4.50;;;3.70;;
10902;SDS011;5504;47.312;11.060;2022-08-16T05:48:25;3.90;;;3.60;;
10902;SDS011;5504;47.312;11.060;2022-08-16T05:50:51;4.00;;;3.60;;
10902;SDS011;5504;47.312;11.060;2022-08-16T05:53:17;4.20;;;3.87;;
10902;SDS011;5504;47.312;11.060;2022-08-16T05:55:42;3.73;;;3.43;;
10902;SDS011;5504;47.312;11.060;2022-08-16T05:58:08;3.70;;;3.40;;
10902;SDS011;5504;47.312;11.060;2022-08-16T06:00:34;4.17;;;3.67;;
10902;SDS011;5504;47.312;11.060;2022-08-16T06:03:01;4.00;;;3.60;;
10902;SDS011;5504;47.312;11.060;2022-08-16T06:05:26;4.30;;;3.90;;
10902;SDS011;5504;47.312;11.060;2022-08-16T06:07:52;3.80;;;3.50;;
10902;SDS011;5504;47.312;11.060;2022-08-16T06:10:18;4.90;;;4.00;;
10902;SDS011;5504;47.312;11.060;2022-08-16T06:12:44;3.93;;;3.63;;
10902;SDS011;5504;47.312;11.060;2022-08-16T06:15:12;4.20;;;3.83;;
10902;SDS011;5504;47.312;11.060;2022-08-16T06:17:40;3.80;;;3.50;;
10902;SDS011;5504;47.312;11.060;2022-08-16T06:20:07;4.63;;;3.57;;
10902;SDS011;5504;47.312;11.060;2022-08-16T06:22:35;4.87;;;3.80;;
10902;SDS011;5504;47.312;11.060;2022-08-16T06:25:02;5.73;;;3.20;;
10902;SDS011;5504;47.312;11.060;2022-08-16T06:27:29;3.77;;;3.33;;
10902;SDS011;5504;47.312;11.060;2022-08-16T06:29:54;3.80;;;3.50;;
10902;SDS011;5504;47.312;11.060;2022-08-16T06:32:20;3.87;;;3.47;;
10902;SDS011;5504;47.312;11.060;2022-08-16T06:34:46;3.90;;;3.50;;
10902;SDS011;5504;47.312;11.060;2022-08-16T06:37:12;4.90;;;3.50;;
10902;SDS011;5504;47.312;11.060;2022-08-16T06:39:38;3.90;;;3.60;;
10902;SDS011;5504;47.312;11.060;2022-08-16T06:42:03;5.57;;;3.60;;
10902;SDS011;5504;47.312;11.060;2022-08-16T06:44:30;3.50;;;3.20;;
10902;SDS011;5504;47.312;11.060;2022-08-16T06:46:56;4.90;;;3.57;;
10902;SDS011;5504;47.312;11.060;2022-08-16T06:49:21;4.87;;;4.00;;
10902;SDS011;5504;47.312;11.060;2022-08-16T06:51:48;3.80;;;3.40;;
10902;SDS011;5504;47.312;11.060;2022-08-16T06:54:14;7.15;;;4.20;;
10902;SDS011;5504;47.312;11.060;2022-08-16T06:56:40;5.07;;;3.80;;
10902;SDS011;5504;47.312;11.060;2022-08-16T06:59:07;3.73;;;3.43;;
10902;SDS011;5504;47.312;11.060;2022-08-16T07:01:32;4.67;;;2.97;;
10902;SDS011;5504;47.312;11.060;2022-08-16T07:03:58;3.70;;;3.40;;
10902;SDS011;5504;47.312;11.060;2022-08-16T07:06:24;3.30;;;3.00;;
10902;SDS011;5504;47.312;11.060;2022-08-16T07:08:50;3.90;;;3.53;;
10902;SDS011;5504;47.312;11.060;2022-08-16T07:11:16;4.25;;;3.20;;
10902;SDS011;5504;47.312;11.060;2022-08-16T07:13:44;3.63;;;3.28;;
10902;SDS011;5504;47.312;11.060;2022-08-16T07:16:11;3.27;;;2.90;;
10902;SDS011;5504;47.312;11.060;2022-08-16T07:18:43;3.03;;;2.80;;
10902;SDS011;5504;47.312;11.060;2022-08-16T07:21:10;4.28;;;3.38;;
10902;SDS011;5504;47.312;11.060;2022-08-16T07:23:38;3.30;;;3.10;;
10902;SDS011;5504;47.312;11.060;2022-08-16T07:26:06;3.30;;;3.00;;
10902;SDS011;5504;47.312;11.060;2022-08-16T07:28:33;2.90;;;2.70;;
10902;SDS011;5504;47.312;11.060;2022-08-16T07:30:59;3.45;;;3.15;;
10902;SDS011;5504;47.312;11.060;2022-08-16T07:33:27;2.83;;;2.63;;
10902;SDS011;5504;47.312;11.060;2022-08-16T07:35:58;2.90;;;2.70;;
10902;SDS011;5504;47.312;11.060;2022-08-16T07:38:24;4.35;;;2.95;;
10902;SDS011;5504;47.312;11.060;2022-08-16T07:40:52;3.22;;;2.90;;
10902;SDS011;5504;47.312;11.060;2022-08-16T07:43:19;5.10;;;2.90;;
10902;SDS011;5504;47.312;11.060;2022-08-16T07:45:45;3.78;;;2.88;;
10902;SDS011;5504;47.312;11.060;2022-08-16T07:48:11;3.03;;;2.80;;
10902;SDS011;5504;47.312;11.060;2022-08-16T07:50:36;3.35;;;2.85;;
10902;SDS011;5504;47.312;11.060;2022-08-16T07:53:02;3.10;;;2.80;;
10902;SDS011;5504;47.312;11.060;2022-08-16T07:55:28;2.88;;;2.58;;
10902;SDS011;5504;47.312;11.060;2022-08-16T07:57:53;2.60;;;2.40;;
10902;SDS011;5504;47.312;11.060;2022-08-16T08:00:19;2.83;;;2.60;;
10902;SDS011;5504;47.312;11.060;2022-08-16T08:02:47;2.80;;;2.60;;
10902;SDS011;5504;47.312;11.060;2022-08-16T08:05:13;2.80;;;2.60;;
10902;SDS011;5504;47.312;11.060;2022-08-16T08:07:39;2.70;;;2.50;;
10902;SDS011;5504;47.312;11.060;2022-08-16T08:10:05;3.78;;;2.53;;
10902;SDS011;5504;47.312;11.060;2022-08-16T08:12:32;2.85;;;2.65;;
10902;SDS011;5504;47.312;11.060;2022-08-16T08:14:58;2.70;;;2.50;;
10902;SDS011;5504;47.312;11.060;2022-08-16T08:17:24;2.50;;;2.30;;
10902;SDS011;5504;47.312;11.060;2022-08-16T08:19:50;3.38;;;2.40;;
10902;SDS011;5504;47.312;11.060;2022-08-16T08:22:15;2.53;;;2.33;;
10902;SDS011;5504;47.312;11.060;2022-08-16T08:24:41;2.70;;;2.33;;
10902;SDS011;5504;47.312;11.060;2022-08-16T08:27:07;2.50;;;2.28;;
10902;SDS011;5504;47.312;11.060;2022-08-16T08:29:34;2.40;;;2.20;;
10902;SDS011;5504;47.312;11.060;2022-08-16T08:32:00;2.35;;;2.22;;
10902;SDS011;5504;47.312;11.060;2022-08-16T08:34:26;2.92;;;2.30;;
10902;SDS011;5504;47.312;11.060;2022-08-16T08:36:53;2.55;;;2.35;;
10902;SDS011;5504;47.312;11.060;2022-08-16T08:39:18;2.60;;;2.40;;
10902;SDS011;5504;47.312;11.060;2022-08-16T08:41:44;2.45;;;2.25;;
10902;SDS011;5504;47.312;11.060;2022-08-16T08:44:12;2.53;;;2.30;;
10902;SDS011;5504;47.312;11.060;2022-08-16T08:46:38;3.10;;;2.80;;
10902;SDS011;5504;47.312;11.060;2022-08-16T08:49:05;2.88;;;2.63;;
10902;SDS011;5504;47.312;11.060;2022-08-16T08:51:35;2.70;;;2.50;;
10902;SDS011;5504;47.312;11.060;2022-08-16T08:54:03;2.60;;;2.40;;
10902;SDS011;5504;47.312;11.060;2022-08-16T08:56:30;2.83;;;2.63;;
10902;SDS011;5504;47.312;11.060;2022-08-16T08:58:57;2.83;;;2.30;;
10902;SDS011;5504;47.312;11.060;2022-08-16T09:01:27;3.60;;;2.33;;
10902;SDS011;5504;47.312;11.060;2022-08-16T09:03:56;2.92;;;2.50;;
10902;SDS011;5504;47.312;11.060;2022-08-16T09:06:21;2.90;;;2.70;;
10902;SDS011;5504;47.312;11.060;2022-08-16T09:08:47;2.97;;;2.40;;
10902;SDS011;5504;47.312;11.060;2022-08-16T09:11:13;3.08;;;2.80;;
10902;SDS011;5504;47.312;11.060;2022-08-16T09:13:38;2.50;;;2.30;;
10902;SDS011;5504;47.312;11.060;2022-08-16T09:16:04;2.65;;;2.38;;
10902;SDS011;5504;47.312;11.060;2022-08-16T09:18:30;2.45;;;2.25;;
10902;SDS011;5504;47.312;11.060;2022-08-16T09:20:56;2.50;;;2.30;;
10902;SDS011;5504;47.312;11.060;2022-08-16T09:23:27;2.53;;;2.33;;
10902;SDS011;5504;47.312;11.060;2022-08-16T09:25:55;2.50;;;2.30;;
10902;SDS011;5504;47.312;11.060;2022-08-16T09:28:21;2.50;;;2.30;;
10902;SDS011;5504;47.312;11.060;2022-08-16T09:30:48;5.82;;;2.70;;
10902;SDS011;5504;47.312;11.060;2022-08-16T09:33:14;2.70;;;2.50;;
10902;SDS011;5504;47.312;11.060;2022-08-16T09:35:42;2.60;;;2.40;;
10902;SDS011;5504;47.312;11.060;2022-08-16T09:38:09;2.78;;;2.58;;
10902;SDS011;5504;47.312;11.060;2022-08-16T09:40:39;2.58;;;2.38;;
10902;SDS011;5504;47.312;11.060;2022-08-16T09:43:06;2.80;;;2.60;;
10902;SDS011;5504;47.312;11.060;2022-08-16T09:45:33;2.72;;;2.53;;
10902;SDS011;5504;47.312;11.060;2022-08-16T09:48:03;2.78;;;2.50;;
10902;SDS011;5504;47.312;11.060;2022-08-16T09:50:30;4.63;;;2.40;;
10902;SDS011;5504;47.312;11.060;2022-08-16T09:52:56;2.65;;;2.45;;
10902;SDS011;5504;47.312;11.060;2022-08-16T09:55:23;3.97;;;2.72;;
10902;SDS011;5504;47.312;11.060;2022-08-16T09:57:49;2.80;;;2.53;;
10902;SDS011;5504;47.312;11.060;2022-08-16T10:00:15;2.95;;;2.40;;
10902;SDS011;5504;47.312;11.060;2022-08-16T10:02:41;2.83;;;2.63;;
10902;SDS011;5504;47.312;11.060;2022-08-16T10:05:07;3.13;;;2.90;;
10902;SDS011;5504;47.312;11.060;2022-08-16T10:07:33;2.90;;;2.70;;
10902;SDS011;5504;47.312;11.060;2022-08-16T10:09:59;2.72;;;2.53;;
10902;SDS011;5504;47.312;11.060;2022-08-16T10:12:26;3.00;;;2.80;;
10902;SDS011;5504;47.312;11.060;2022-08-16T10:15:12;2.65;;;2.45;;
10902;SDS011;5504;47.312;11.060;2022-08-16T10:17:40;3.88;;;2.55;;
10902;SDS011;5504;47.312;11.060;2022-08-16T10:20:07;3.80;;;2.70;;
10902;SDS011;5504;47.312;11.060;2022-08-16T10:22:35;2.80;;;2.55;;
10902;SDS011;5504;47.312;11.060;2022-08-16T10:25:02;3.08;;;2.70;;
10902;SDS011;5504;47.312;11.060;2022-08-16T10:27:29;2.85;;;2.50;;
10902;SDS011;5504;47.312;11.060;2022-08-16T10:29:55;2.42;;;2.25;;
10902;SDS011;5504;47.312;11.060;2022-08-16T10:32:21;2.97;;;2.53;;
10902;SDS011;5504;47.312;11.060;2022-08-16T10:34:47;3.25;;;2.30;;
10902;SDS011;5504;47.312;11.060;2022-08-16T10:37:12;2.67;;;2.47;;
10902;SDS011;5504;47.312;11.060;2022-08-16T10:39:38;2.30;;;2.10;;
10902;SDS011;5504;47.312;11.060;2022-08-16T10:42:04;2.75;;;2.55;;
10902;SDS011;5504;47.312;11.060;2022-08-16T10:44:30;2.70;;;2.47;;
10902;SDS011;5504;47.312;11.060;2022-08-16T10:46:56;2.40;;;2.30;;
10902;SDS011;5504;47.312;11.060;2022-08-16T10:49:22;2.45;;;2.25;;
10902;SDS011;5504;47.312;11.060;2022-08-16T10:51:48;2.60;;;2.40;;
10902;SDS011;5504;47.312;11.060;2022-08-16T10:54:14;2.30;;;2.10;;
10902;SDS011;5504;47.312;11.060;2022-08-16T10:56:40;2.20;;;2.10;;
10902;SDS011;5504;47.312;11.060;2022-08-16T10:59:08;2.42;;;2.22;;
10902;SDS011;5504;47.312;11.060;2022-08-16T11:01:34;2.03;;;1.92;;
10902;SDS011;5504;47.312;11.060;2022-08-16T11:04:00;1.98;;;1.80;;
10902;SDS011;5504;47.312;11.060;2022-08-16T11:06:26;1.88;;;1.77;;
10902;SDS011;5504;47.312;11.060;2022-08-16T11:08:52;1.90;;;1.80;;
10902;SDS011;5504;47.312;11.060;2022-08-16T11:11:18;1.90;;;1.80;;
10902;SDS011;5504;47.312;11.060;2022-08-16T11:13:44;1.40;;;1.38;;
10902;SDS011;5504;47.312;11.060;2022-08-16T11:16:12;1.90;;;1.50;;
10902;SDS011;5504;47.312;11.060;2022-08-16T11:18:38;1.42;;;1.40;;
10902;SDS011;5504;47.312;11.060;2022-08-16T11:21:04;1.55;;;1.45;;
10902;SDS011;5504;47.312;11.060;2022-08-16T11:23:30;1.42;;;1.40;;
10902;SDS011;5504;47.312;11.060;2022-08-16T11:25:56;1.73;;;1.63;;
10902;SDS011;5504;47.312;11.060;2022-08-16T11:28:22;1.63;;;1.45;;
10902;SDS011;5504;47.312;11.060;2022-08-16T11:30:49;1.50;;;1.40;;
10902;SDS011;5504;47.312;11.060;2022-08-16T11:33:15;1.50;;;1.40;;
10902;SDS011;5504;47.312;11.060;2022-08-16T11:35:41;1.60;;;1.50;;
10902;SDS011;5504;47.312;11.060;2022-08-16T11:38:11;1.70;;;1.60;;
10902;SDS011;5504;47.312;11.060;2022-08-16T11:40:41;1.50;;;1.40;;
10902;SDS011;5504;47.312;11.060;2022-08-16T11:43:17;1.65;;;1.55;;
10902;SDS011;5504;47.312;11.060;2022-08-16T11:45:45;1.63;;;1.52;;
10902;SDS011;5504;47.312;11.060;2022-08-16T11:48:12;1.52;;;1.42;;
10902;SDS011;5504;47.312;11.060;2022-08-16T11:50:39;1.52;;;1.33;;
10902;SDS011;5504;47.312;11.060;2022-08-16T11:53:06;1.95;;;1.80;;
10902;SDS011;5504;47.312;11.060;2022-08-16T11:55:33;1.67;;;1.58;;
10902;SDS011;5504;47.312;11.060;2022-08-16T11:58:00;1.50;;;1.40;;
10902;SDS011;5504;47.312;11.060;2022-08-16T12:00:27;1.75;;;1.50;;
10902;SDS011;5504;47.312;11.060;2022-08-16T12:02:54;1.80;;;1.70;;
10902;SDS011;5504;47.312;11.060;2022-08-16T12:05:20;1.65;;;1.55;;
10902;SDS011;5504;47.312;11.060;2022-08-16T12:07:46;1.77;;;1.67;;
10902;SDS011;5504;47.312;11.060;2022-08-16T12:10:14;2.03;;;1.92;;
10902;SDS011;5504;47.312;11.060;2022-08-16T12:12:43;1.90;;;1.80;;
10902;SDS011;5504;47.312;11.060;2022-08-16T12:15:11;2.28;;;1.90;;
10902;SDS011;5504;47.312;11.060;2022-08-16T12:17:38;1.98;;;1.75;;
10902;SDS011;5504;47.312;11.060;2022-08-16T12:20:13;1.90;;;1.80;;
10902;SDS011;5504;47.312;11.060;2022-08-16T12:22:40;2.20;;;2.00;;
10902;SDS011;5504;47.312;11.060;2022-08-16T12:25:07;1.88;;;1.77;;
10902;SDS011;5504;47.312;11.060;2022-08-16T12:27:34;1.95;;;1.80;;
10902;SDS011;5504;47.312;11.060;2022-08-16T12:30:02;2.90;;;1.80;;
10902;SDS011;5504;47.312;11.060;2022-08-16T12:32:29;2.25;;;2.00;;
10902;SDS011;5504;47.312;11.060;2022-08-16T12:34:55;1.83;;;1.73;;
10902;SDS011;5504;47.312;11.060;2022-08-16T12:37:21;1.95;;;1.85;;
10902;SDS011;5504;47.312;11.060;2022-08-16T12:39:48;2.28;;;2.08;;
10902;SDS011;5504;47.312;11.060;2022-08-16T12:42:14;2.28;;;2.08;;
10902;SDS011;5504;47.312;11.060;2022-08-16T12:44:43;3.20;;;2.00;;
10902;SDS011;5504;47.312;11.060;2022-08-16T12:47:09;2.17;;;1.90;;
10902;SDS011;5504;47.312;11.060;2022-08-16T12:49:54;1.90;;;1.70;;
10902;SDS011;5504;47.312;11.060;2022-08-16T12:52:20;2.10;;;2.00;;
10902;SDS011;5504;47.312;11.060;2022-08-16T12:54:45;1.98;;;1.88;;
10902;SDS011;5504;47.312;11.060;2022-08-16T12:57:11;1.98;;;1.88;;
10902;SDS011;5504;47.312;11.060;2022-08-16T12:59:37;2.15;;;1.98;;
10902;SDS011;5504;47.312;11.060;2022-08-16T13:02:03;2.85;;;2.10;;
10902;SDS011;5504;47.312;11.060;2022-08-16T13:04:30;2.05;;;1.90;;
10902;SDS011;5504;47.312;11.060;2022-08-16T13:06:57;2.50;;;2.05;;
10902;SDS011;5504;47.312;11.060;2022-08-16T13:09:24;2.30;;;2.10;;
10902;SDS011;5504;47.312;11.060;2022-08-16T13:11:53;1.90;;;1.80;;
10902;SDS011;5504;47.312;11.060;2022-08-16T13:14:33;2.20;;;2.00;;
10902;SDS011;5504;47.312;11.060;2022-08-16T13:17:03;2.20;;;2.00;;
10902;SDS011;5504;47.312;11.060;2022-08-16T13:19:30;2.22;;;2.10;;
10902;SDS011;5504;47.312;11.060;2022-08-16T13:21:56;2.28;;;2.08;;
10902;SDS011;5504;47.312;11.060;2022-08-16T13:24:22;2.95;;;2.22;;
10902;SDS011;5504;47.312;11.060;2022-08-16T13:26:48;2.00;;;1.90;;
10902;SDS011;5504;47.312;11.060;2022-08-16T13:29:13;3.05;;;2.00;;
10902;SDS011;5504;47.312;11.060;2022-08-16T13:31:39;2.00;;;1.90;;
10902;SDS011;5504;47.312;11.060;2022-08-16T13:34:05;2.22;;;2.08;;
10902;SDS011;5504;47.312;11.060;2022-08-16T13:36:30;1.77;;;1.67;;
10902;SDS011;5504;47.312;11.060;2022-08-16T13:38:56;3.40;;;2.20;;
10902;SDS011;5504;47.312;11.060;2022-08-16T13:41:23;2.58;;;2.13;;
10902;SDS011;5504;47.312;11.060;2022-08-16T13:43:51;2.10;;;1.90;;
10902;SDS011;5504;47.312;11.060;2022-08-16T13:46:17;2.60;;;2.00;;
10902;SDS011;5504;47.312;11.060;2022-08-16T13:48:42;2.22;;;2.03;;
10902;SDS011;5504;47.312;11.060;2022-08-16T13:51:08;3.08;;;1.70;;
10902;SDS011;5504;47.312;11.060;2022-08-16T13:53:35;2.10;;;1.88;;
10902;SDS011;5504;47.312;11.060;2022-08-16T13:56:01;2.47;;;1.90;;
10902;SDS011;5504;47.312;11.060;2022-08-16T13:58:27;2.15;;;1.95;;
10902;SDS011;5504;47.312;11.060;2022-08-16T14:00:53;2.22;;;1.90;;
10902;SDS011;5504;47.312;11.060;2022-08-16T14:03:19;2.42;;;2.20;;
10902;SDS011;5504;47.312;11.060;2022-08-16T14:05:46;2.90;;;2.05;;
10902;SDS011;5504;47.312;11.060;2022-08-16T14:08:12;1.98;;;1.88;;
10902;SDS011;5504;47.312;11.060;2022-08-16T14:10:37;2.47;;;2.28;;
10902;SDS011;5504;47.312;11.060;2022-08-16T14:13:03;2.58;;;2.03;;
10902;SDS011;5504;47.312;11.060;2022-08-16T14:15:31;1.90;;;1.80;;
10902;SDS011;5504;47.312;11.060;2022-08-16T14:17:57;2.17;;;2.00;;
10902;SDS011;5504;47.312;11.060;2022-08-16T14:20:24;3.42;;;2.10;;
10902;SDS011;5504;47.312;11.060;2022-08-16T14:22:50;2.38;;;2.17;;
10902;SDS011;5504;47.312;11.060;2022-08-16T14:25:16;2.50;;;2.30;;
10902;SDS011;5504;47.312;11.060;2022-08-16T14:27:44;3.05;;;2.15;;
10902;SDS011;5504;47.312;11.060;2022-08-16T14:30:10;2.45;;;2.25;;
10902;SDS011;5504;47.312;11.060;2022-08-16T14:32:40;2.97;;;2.10;;
10902;SDS011;5504;47.312;11.060;2022-08-16T14:35:08;2.10;;;1.90;;
10902;SDS011;5504;47.312;11.060;2022-08-16T14:37:37;2.65;;;2.20;;
10902;SDS011;5504;47.312;11.060;2022-08-16T14:40:03;3.10;;;2.30;;
10902;SDS011;5504;47.312;11.060;2022-08-16T14:42:30;2.50;;;2.30;;
10902;SDS011;5504;47.312;11.060;2022-08-16T14:44:56;3.45;;;2.03;;
10902;SDS011;5504;47.312;11.060;2022-08-16T14:47:23;2.67;;;2.47;;
10902;SDS011;5504;47.312;11.060;2022-08-16T14:49:49;2.78;;;2.08;;
10902;SDS011;5504;47.312;11.060;2022-08-16T14:52:16;2.40;;;2.20;;
10902;SDS011;5504;47.312;11.060;2022-08-16T14:54:45;2.60;;;2.40;;